Anvik, AK

9:36 PM AKDT on July 23, 2014 (GMT -0800)
Anvik (PANV) Elev 308 ft | 62.65 °N, 160.19 °W | Change Station

Current weather conditions updated 20 minutes ago

Overcast
Overcast
50 °F
Feels Like 50 °F
N
8
Wind Variable Wind from SSW

Tomorrow is forecast to be Warmer than today. Morning showers.

Today
High -- | Low -- °F
--% Chance of Precip.
Yesterday
High -- | Low -- °F
Precip. -- in
5:34 AM 11:59 PM
Waning Crescent, 7% visible
Pressure 29.78 in
Visibility 10.0 miles
Clouds Overcast 1500 ft
Dew Point 45 °F
Humidity 82%
Rainfall 0.00 in
Snow Depth Not available.
UV 0 out of 12
Pollen Not available.
Air Quality Not available.
Flu Activity Not available.
METAR PANV 240516Z AUTO 20007KT 10SM OVC015 10/07 A2978 RMK AO1

More Conditions Fewer Conditions

Pressure 29.78 in
Visibility 10.0 miles
Clouds Overcast 1500 ft
Dew Point 45 °F
Humidity 82%
Rainfall 0.00 in
Snow Depth Not available.
UV 0 out of 12
Pollen Not available.
Air Quality Not available.
Flu Activity Not available.
METAR PANV 240516Z AUTO 20007KT 10SM OVC015 10/07 A2978 RMK AO1

More Conditions Fewer Conditions

10-Day Weather Forecast

Almanac

Astronomy

Jul. 23, 2014 Rise Set
Actual Time 5:34 AM AKDT 11:59 PM AKDT
Civil Twilight 3:53 AM AKDT 1:37 AM AKDT
Nautical Twilight Sun does not rise Sun does not rise
Astronomical Twilight Sun does not rise Sun does not rise
Moon 3:15 AM AKDT (7/23) 9:25 PM AKDT (7/23)
Length of Visible Light 21h 44m
Length of Day
18h 25m
Tomorrow will be 5m 36s shorter.
Waning Crescent, 7% of the Moon is Illuminated
Jul 24
Waning Crescent
Jul 26
New
Aug 3
First Quarter
Aug 10
Full
Aug 17
Last Quarter

Yesterday's Extremes

State Highs State Lows

Community

WunderPhotos

Upload Photos

1,736,916 photos uploaded!

Nearby

Snow Depth

Station Depth Elevation
Rocky Point 2 in 500 ft
Susitna Valley High 2 in 375 ft
Point Mackenzie 0 in 200 ft
Mcneil Canyon 1 in 1320 ft
Indian Pass 1 in 2300 ft

Earthquake Activity

City Distance Mag. Time & Date
No recent earthquake activity has been reported nearby.
Minimum magnitude displayed is 2.5.

Coastal Water Temperatures

Place Temperature
No Stations Reporting

Nearby Weather Stations

There are no personal weather stations in this area.